Kharg Airport

Airport
ICAO code: 
OIBQ
IATA Code: 
KHK
Summary
ICAO Region: 
APAC
Territory: 
Location: 
Kharg, Bushehr
Serving: 
Kharg Island
Elevation: 
29 ft
Coordinates: 
Aerial View: 
29° 15' 14.219" N, 50° 19' 34.986" E
Metar
Observation
OIBQ 260800Z 32006KT CAVOK 38/22 Q0998 A2949
Station
KHARK ISLAND
Date/Time
2022-06-26 08:00:00
Wind direction
320°
Wind speed
06 kts
Lowest cloud amount
clouds and visibility OK
Temperature
38°C
Dew point
22°C
Humidity
39%
QNH
998 hPa
Weather condition
n/a

Climatology

Warm desert climate (Köppen climate classification BWh)

Runways

Designator Length Width Surface Rops
14/32 1805 45 ASP No/No
Airport map: 
Aerial View: 

Accidents and Serious Incidents at or in the vicinity of OIBQ

SKYbrary Partners:

Safety knowledge contributed by: